Time;durP1;ratioP1;P1;durP2;ratioP2;P2;SDS_P1;SDS_P2;PMS_P1;PMS_P2;Temp;Humidity;BMP_temperature;BMP_pressure;BME280_temperature;BME280_humidity;BME280_pressure;Samples;Min_cycle;Max_cycle;Signal;HPM_P1;HPM_P2
2021/06/25 00:01:48;;;;;;;8.97;6.17;;;13.60;79.60;;;;;;4975179;28;20192;-89
2021/06/25 00:04:13;;;;;;;8.60;6.23;;;13.60;79.00;;;;;;4975191;28;20186;-89
2021/06/25 00:06:39;;;;;;;9.10;6.13;;;13.60;78.70;;;;;;4975047;28;20202;-88
2021/06/25 00:09:05;;;;;;;8.50;7.00;;;13.60;78.40;;;;;;4991353;28;20228;-89
2021/06/25 00:11:30;;;;;;;11.43;7.37;;;13.60;78.20;;;;;;4975016;28;20182;-89
2021/06/25 00:13:56;;;;;;;9.47;6.83;;;13.50;78.40;;;;;;4975114;28;20205;-89
2021/06/25 00:16:22;;;;;;;10.93;7.20;;;13.50;78.50;;;;;;4974977;28;20224;-88
2021/06/25 00:18:48;;;;;;;10.23;6.83;;;13.50;78.60;;;;;;4992397;28;20227;-88
2021/06/25 00:21:14;;;;;;;10.50;7.27;;;13.40;78.70;;;;;;4974961;28;20222;-87
2021/06/25 00:23:39;;;;;;;8.60;6.80;;;13.40;79.20;;;;;;4991395;28;20205;-89
2021/06/25 00:26:05;;;;;;;7.07;6.37;;;13.40;79.00;;;;;;4992173;28;20194;-90
2021/06/25 00:28:31;;;;;;;8.33;7.10;;;13.40;78.90;;;;;;4991129;28;20185;-89
2021/06/25 00:30:56;;;;;;;12.30;7.03;;;13.30;78.90;;;;;;4990931;28;20601;-89
2021/06/25 00:33:22;;;;;;;13.23;8.10;;;13.30;79.10;;;;;;4974099;28;20289;-88
2021/06/25 00:35:47;;;;;;;9.50;7.53;;;13.30;79.70;;;;;;4974549;28;20271;-88
2021/06/25 00:38:14;;;;;;;10.67;8.20;;;13.20;80.00;;;;;;4990789;28;20170;-89
2021/06/25 00:40:39;;;;;;;13.10;8.67;;;13.10;82.20;;;;;;4974724;28;20209;-89
2021/06/25 00:43:05;;;;;;;9.63;8.07;;;13.00;83.10;;;;;;4974711;28;20201;-88
2021/06/25 00:45:31;;;;;;;13.23;8.60;;;13.00;83.30;;;;;;4990666;28;20178;-89
2021/06/25 00:47:57;;;;;;;11.20;7.87;;;13.00;82.60;;;;;;4974565;28;20608;-88
2021/06/25 00:50:26;;;;;;;11.27;8.60;;;13.10;82.20;;;;;;4974511;28;20186;-88
2021/06/25 00:52:53;;;;;;;10.10;8.00;;;13.10;81.90;;;;;;4974334;28;20194;-88
2021/06/25 00:55:20;;;;;;;11.50;8.70;;;13.10;81.60;;;;;;4974361;28;20656;-88
2021/06/25 00:57:47;;;;;;;11.03;7.80;;;13.10;82.40;;;;;;4991921;28;20192;-88
2021/06/25 01:00:13;;;;;;;8.53;7.70;;;13.10;82.10;;;;;;4991786;28;20170;-88
2021/06/25 01:02:39;;;;;;;10.43;8.60;;;13.10;81.80;;;;;;4974249;28;20235;-88
2021/06/25 01:05:07;;;;;;;11.67;7.87;;;13.10;81.50;;;;;;4990432;28;20653;-88
2021/06/25 01:07:34;;;;;;;8.73;7.47;;;13.20;81.50;;;;;;4991424;28;20198;-88
2021/06/25 01:10:04;;;;;;;16.57;8.50;;;13.10;81.20;;;;;;4974264;28;20247;-88
2021/06/25 01:12:29;;;;;;;12.93;8.77;;;13.10;81.20;;;;;;4974454;28;20198;-88
2021/06/25 01:14:55;;;;;;;12.43;8.97;;;13.10;81.10;;;;;;4973999;28;20179;-88
2021/06/25 01:17:36;;;;;;;9.37;8.37;;;13.00;81.30;;;;;;4990121;28;20198;-88
2021/06/25 01:20:08;;;;;;;13.43;8.80;;;13.00;82.00;;;;;;4974018;28;20182;-88
2021/06/25 01:22:35;;;;;;;11.00;8.50;;;12.90;82.80;;;;;;4974103;28;20178;-88
2021/06/25 01:25:06;;;;;;;10.90;8.83;;;12.80;83.20;;;;;;4991346;28;20182;-88
2021/06/25 01:27:32;;;;;;;12.83;8.97;;;12.60;84.20;;;;;;4991298;28;20236;-88
2021/06/25 01:30:00;;;;;;;10.73;8.13;;;12.50;84.70;;;;;;4973898;28;20214;-88
2021/06/25 01:32:26;;;;;;;13.47;8.20;;;12.60;84.10;;;;;;4973991;28;20708;-88
2021/06/25 01:34:52;;;;;;;13.73;8.63;;;12.70;83.30;;;;;;4991239;28;20178;-88
2021/06/25 01:37:19;;;;;;;14.37;8.77;;;12.70;83.40;;;;;;4991177;28;20216;-88
2021/06/25 01:39:49;;;;;;;11.50;9.50;;;12.70;83.30;;;;;;4991255;28;20178;-89
2021/06/25 01:42:15;;;;;;;11.33;8.67;;;12.70;83.40;;;;;;4973748;28;20664;-88
2021/06/25 01:44:41;;;;;;;14.30;9.47;;;12.70;84.00;;;;;;4975512;28;20185;-88
2021/06/25 01:47:06;;;;;;;12.57;9.67;;;12.80;83.40;;;;;;4977167;28;20289;-88
2021/06/25 01:49:34;;;;;;;9.70;8.43;;;12.80;82.90;;;;;;4977125;28;20208;-88
2021/06/25 01:51:59;;;;;;;12.33;8.93;;;12.80;82.50;;;;;;4977054;28;20270;-89
2021/06/25 01:54:25;;;;;;;9.60;7.87;;;12.80;82.10;;;;;;4993317;28;20273;-89
2021/06/25 01:56:51;;;;;;;10.83;8.30;;;12.80;82.00;;;;;;4976989;28;20197;-88
2021/06/25 01:59:16;;;;;;;11.17;8.57;;;12.80;81.80;;;;;;4976989;28;20174;-88
2021/06/25 02:01:42;;;;;;;11.73;9.10;;;12.70;81.70;;;;;;4994316;28;20611;-88
2021/06/25 02:04:08;;;;;;;14.00;8.83;;;12.70;81.80;;;;;;4994336;28;20181;-88
2021/06/25 02:06:33;;;;;;;14.43;10.23;;;12.70;81.80;;;;;;4994477;28;20234;-88
2021/06/25 02:09:01;;;;;;;14.93;9.73;;;12.70;81.60;;;;;;4994178;28;20185;-88
2021/06/25 02:11:27;;;;;;;13.40;9.57;;;12.70;81.50;;;;;;4993081;28;20178;-88
2021/06/25 02:13:53;;;;;;;12.23;8.77;;;12.70;81.40;;;;;;4992930;28;20254;-88
2021/06/25 02:16:19;;;;;;;11.57;10.10;;;12.70;81.30;;;;;;4976603;28;20201;-88
2021/06/25 02:18:45;;;;;;;18.47;10.17;;;12.70;81.40;;;;;;4976748;28;20178;-88
2021/06/25 02:21:10;;;;;;;14.17;11.60;;;12.70;81.80;;;;;;4977008;28;20587;-88
2021/06/25 02:23:36;;;;;;;12.33;10.97;;;12.60;83.10;;;;;;4976679;28;20549;-88
2021/06/25 02:26:02;;;;;;;14.27;11.53;;;12.50;83.60;;;;;;4976521;28;20209;-88
2021/06/25 02:28:29;;;;;;;14.37;11.50;;;12.50;83.70;;;;;;4993995;28;20178;-88
2021/06/25 02:30:56;;;;;;;13.57;12.10;;;12.50;83.90;;;;;;4976585;28;20713;-88
2021/06/25 02:33:22;;;;;;;16.23;10.37;;;12.50;84.00;;;;;;4992695;28;20658;-88
2021/06/25 02:35:49;;;;;;;16.47;10.57;;;12.50;83.50;;;;;;4976210;28;20224;-88
2021/06/25 02:38:14;;;;;;;12.10;9.47;;;12.50;82.90;;;;;;4976916;28;20170;-88
2021/06/25 02:40:41;;;;;;;12.13;9.50;;;12.50;82.60;;;;;;4976991;28;20228;-88
2021/06/25 02:43:06;;;;;;;10.80;9.70;;;12.50;82.50;;;;;;4976804;28;20178;-88
2021/06/25 02:45:32;;;;;;;12.90;9.70;;;12.50;82.30;;;;;;4976337;28;20178;-88
2021/06/25 02:47:58;;;;;;;10.80;9.70;;;12.40;82.30;;;;;;4993948;28;20556;-88
2021/06/25 02:50:24;;;;;;;14.60;9.17;;;12.40;82.30;;;;;;4976329;28;20595;-88
2021/06/25 02:52:49;;;;;;;16.07;9.73;;;12.40;82.30;;;;;;4993481;28;20190;-88
2021/06/25 02:55:16;;;;;;;10.43;9.27;;;12.40;82.10;;;;;;4975776;28;20660;-88
2021/06/25 02:57:42;;;;;;;12.70;10.77;;;12.30;81.90;;;;;;4976108;28;20574;-88
2021/06/25 03:00:14;;;;;;;13.03;9.80;;;12.30;81.80;;;;;;4993550;28;20236;-88
2021/06/25 03:02:40;;;;;;;10.53;9.43;;;12.30;82.00;;;;;;4993611;28;20653;-88
2021/06/25 03:05:07;;;;;;;14.97;8.87;;;12.30;82.20;;;;;;4976156;28;20178;-88
2021/06/25 03:07:33;;;;;;;10.70;8.00;;;12.10;83.00;;;;;;4976069;28;20548;-88
2021/06/25 03:09:58;;;;;;;14.87;9.37;;;11.90;83.80;;;;;;4975980;28;20185;-88
2021/06/25 03:12:24;;;;;;;21.30;9.23;;;11.80;84.20;;;;;;4993208;28;20194;-88
2021/06/25 03:14:50;;;;;;;12.47;8.53;;;11.90;84.70;;;;;;4976152;28;20216;-89
2021/06/25 03:17:16;;;;;;;16.73;8.17;;;12.00;84.80;;;;;;4992168;28;20229;-89
2021/06/25 03:19:42;;;;;;;12.23;8.60;;;12.20;84.10;;;;;;4993212;28;20229;-89
2021/06/25 03:22:08;;;;;;;12.87;8.37;;;12.20;83.40;;;;;;4976110;28;20178;-88
2021/06/25 03:24:34;;;;;;;10.03;7.90;;;12.30;83.10;;;;;;4992250;28;20541;-88
2021/06/25 03:27:00;;;;;;;13.97;8.07;;;12.40;82.80;;;;;;4993117;28;20190;-89
2021/06/25 03:29:26;;;;;;;11.57;8.07;;;12.40;82.50;;;;;;4991923;28;20588;-89
2021/06/25 03:31:51;;;;;;;14.17;8.07;;;12.40;82.10;;;;;;4991893;28;20265;-89
2021/06/25 03:34:17;;;;;;;10.43;8.00;;;12.40;81.90;;;;;;4991752;28;20282;-88
2021/06/25 03:36:42;;;;;;;15.73;10.20;;;12.30;81.50;;;;;;4975402;28;20693;-89
2021/06/25 03:39:08;;;;;;;13.87;10.57;;;12.30;81.60;;;;;;4975468;28;20212;-89
2021/06/25 03:41:34;;;;;;;18.77;11.50;;;12.30;81.60;;;;;;4991691;28;20264;-89
2021/06/25 03:44:00;;;;;;;20.10;13.90;;;12.50;81.60;;;;;;4992849;28;20181;-89
2021/06/25 03:46:25;;;;;;;19.20;12.97;;;12.60;81.90;;;;;;4975395;28;20198;-88
2021/06/25 03:48:51;;;;;;;17.77;13.47;;;12.80;82.60;;;;;;4992756;28;20177;-89
2021/06/25 03:51:18;;;;;;;13.63;11.60;;;13.00;83.00;;;;;;4975261;28;20267;-90
2021/06/25 03:53:43;;;;;;;16.33;12.00;;;13.20;82.50;;;;;;4975241;28;20220;-88
2021/06/25 03:56:12;;;;;;;18.60;13.10;;;13.50;82.30;;;;;;4975177;28;20697;-89
2021/06/25 03:58:44;;;;;;;16.67;12.80;;;13.50;81.80;;;;;;4975289;28;20182;-88
2021/06/25 04:01:10;;;;;;;14.57;12.50;;;13.50;81.30;;;;;;4975314;28;20645;-88
2021/06/25 04:03:37;;;;;;;16.67;12.40;;;13.60;81.10;;;;;;4975272;28;20210;-89
2021/06/25 04:06:04;;;;;;;14.60;12.67;;;13.50;81.60;;;;;;4990759;28;20202;-89
2021/06/25 04:08:31;;;;;;;13.33;11.03;;;13.50;81.50;;;;;;4974861;28;20178;-88
2021/06/25 04:10:58;;;;;;;15.53;11.63;;;13.60;81.70;;;;;;4975057;28;20185;-88
2021/06/25 04:13:26;;;;;;;15.63;11.77;;;13.80;80.80;;;;;;4975041;28;20570;-89
2021/06/25 04:15:53;;;;;;;15.37;12.17;;;14.10;80.30;;;;;;4992513;28;20205;-88
2021/06/25 04:18:19;;;;;;;17.90;12.97;;;13.80;80.80;;;;;;4974861;28;20182;-88
2021/06/25 04:20:45;;;;;;;15.40;11.53;;;13.50;82.50;;;;;;4991107;28;20178;-88
2021/06/25 04:23:11;;;;;;;14.63;11.47;;;13.60;82.70;;;;;;4975607;28;20597;-88
2021/06/25 04:25:37;;;;;;;15.17;11.73;;;13.80;82.40;;;;;;4992122;28;20528;-88
2021/06/25 04:28:03;;;;;;;14.87;10.67;;;13.80;81.90;;;;;;4974795;28;20181;-88
2021/06/25 04:30:29;;;;;;;14.03;11.67;;;13.70;82.10;;;;;;4992168;28;20228;-88
2021/06/25 04:32:58;;;;;;;14.13;10.63;;;13.80;82.00;;;;;;4974766;28;20198;-88
2021/06/25 04:35:23;;;;;;;13.30;11.27;;;13.70;82.10;;;;;;4990870;28;20174;-88
2021/06/25 04:37:49;;;;;;;13.90;10.90;;;13.70;82.20;;;;;;4974536;28;20713;-88
2021/06/25 04:40:14;;;;;;;15.73;11.00;;;13.70;82.50;;;;;;4975250;28;20170;-88
2021/06/25 04:42:40;;;;;;;15.97;11.67;;;13.70;82.80;;;;;;4990849;28;20612;-89
2021/06/25 04:45:07;;;;;;;15.90;10.83;;;13.80;82.50;;;;;;4991940;28;20199;-88
2021/06/25 04:47:32;;;;;;;12.63;10.97;;;13.70;82.70;;;;;;4990779;28;20205;-89
2021/06/25 04:49:58;;;;;;;18.03;11.87;;;13.70;82.80;;;;;;4991861;28;20169;-88
2021/06/25 04:52:24;;;;;;;26.97;13.53;;;13.70;83.10;;;;;;4991768;28;20194;-88
2021/06/25 04:54:50;;;;;;;20.23;12.97;;;13.60;84.00;;;;;;4990688;28;20202;-88
2021/06/25 04:57:16;;;;;;;27.93;14.00;;;13.60;85.40;;;;;;4990528;28;20206;-89
2021/06/25 04:59:42;;;;;;;21.83;14.23;;;13.60;85.80;;;;;;4991691;28;20174;-89
2021/06/25 05:02:07;;;;;;;29.77;14.50;;;13.60;86.00;;;;;;4991952;28;20182;-88
2021/06/25 05:04:33;;;;;;;24.10;13.80;;;13.60;86.40;;;;;;4991865;28;20170;-88
2021/06/25 05:06:59;;;;;;;23.90;13.40;;;13.60;86.40;;;;;;4991570;28;20190;-89
2021/06/25 05:09:24;;;;;;;19.50;14.77;;;13.60;86.20;;;;;;4974253;28;20210;-88
2021/06/25 05:11:50;;;;;;;20.40;13.70;;;13.70;85.80;;;;;;4990429;28;20175;-88
2021/06/25 05:14:16;;;;;;;16.30;12.17;;;13.80;85.40;;;;;;4990215;28;20247;-88
2021/06/25 05:16:41;;;;;;;19.47;14.47;;;13.80;85.40;;;;;;4974087;28;20293;-88
2021/06/25 05:19:07;;;;;;;16.83;13.73;;;13.90;84.80;;;;;;4973972;28;20178;-88
2021/06/25 05:21:33;;;;;;;16.83;12.53;;;14.00;85.10;;;;;;4990170;28;20550;-88
2021/06/25 05:23:58;;;;;;;15.90;10.67;;;14.10;85.00;;;;;;4974046;28;20189;-88
2021/06/25 05:26:24;;;;;;;13.80;10.67;;;14.20;84.60;;;;;;4991227;28;20293;-88
2021/06/25 05:28:50;;;;;;;12.40;9.53;;;14.30;84.20;;;;;;4989993;28;20182;-88
2021/06/25 05:31:15;;;;;;;11.53;9.80;;;14.40;83.60;;;;;;4973946;28;20182;-89
2021/06/25 05:33:42;;;;;;;12.77;10.43;;;14.40;82.90;;;;;;4973780;28;20209;-88
2021/06/25 05:36:09;;;;;;;11.97;10.70;;;14.40;82.70;;;;;;5012849;22;20209;-87
2021/06/25 05:38:35;;;;;;;13.77;10.20;;;14.60;83.30;;;;;;4967433;28;20230;-88
2021/06/25 05:41:00;;;;;;;15.27;10.10;;;14.70;83.00;;;;;;4951208;28;20199;-87
2021/06/25 05:43:26;;;;;;;14.43;10.00;;;14.90;83.40;;;;;;4951176;29;20175;-87
2021/06/25 05:45:52;;;;;;;12.17;9.73;;;15.00;82.60;;;;;;4951281;29;20183;-88
2021/06/25 05:48:17;;;;;;;11.27;8.57;;;15.20;81.80;;;;;;4952311;28;20667;-88
2021/06/25 05:50:43;;;;;;;14.63;9.27;;;15.20;80.40;;;;;;4951155;29;20183;-87
2021/06/25 05:53:09;;;;;;;12.63;8.20;;;15.10;79.10;;;;;;4951071;29;20203;-88
2021/06/25 05:55:35;;;;;;;11.07;8.50;;;15.40;78.90;;;;;;4951031;29;20180;-88
2021/06/25 05:58:01;;;;;;;9.47;7.60;;;15.30;76.70;;;;;;4951009;28;20195;-87
2021/06/25 06:00:26;;;;;;;10.40;9.30;;;15.20;76.10;;;;;;4952539;28;20646;-87
2021/06/25 06:02:52;;;;;;;10.97;7.47;;;15.30;79.10;;;;;;4951046;29;20183;-88
2021/06/25 06:05:18;;;;;;;7.70;6.90;;;15.70;78.30;;;;;;4950955;29;20545;-88
2021/06/25 06:07:43;;;;;;;9.10;7.03;;;16.00;77.40;;;;;;4950887;29;20264;-88
2021/06/25 06:10:10;;;;;;;9.27;5.93;;;15.90;76.10;;;;;;4950908;28;20184;-88
2021/06/25 06:12:36;;;;;;;6.13;5.53;;;16.20;75.80;;;;;;4952072;28;20195;-88
2021/06/25 06:15:02;;;;;;;9.40;6.72;;;16.40;74.10;;;;;;4952015;29;20179;-88
2021/06/25 06:17:28;;;;;;;10.60;6.32;;;16.50;70.30;;;;;;4950791;29;20227;-88
2021/06/25 06:19:55;;;;;;;7.15;5.57;;;16.60;70.50;;;;;;4950764;28;20217;-88
2021/06/25 06:35:46;;;;;;;5.65;3.75;;;16.80;68.00;;;;;;4955457;29;20266;-88
2021/06/25 06:38:11;;;;;;;5.07;4.07;;;16.70;66.30;;;;;;4953805;29;20260;-87
2021/06/25 06:40:37;;;;;;;8.05;4.00;;;16.70;68.80;;;;;;4953901;29;20228;-88
2021/06/25 06:43:03;;;;;;;5.05;4.15;;;16.60;68.70;;;;;;4955006;29;20178;-87
2021/06/25 06:45:29;;;;;;;5.65;3.97;;;16.60;65.30;;;;;;4955085;29;20662;-86
2021/06/25 06:47:54;;;;;;;4.72;3.92;;;16.70;65.20;;;;;;4954877;29;20689;-86
2021/06/25 06:50:20;;;;;;;3.88;3.58;;;16.80;65.60;;;;;;4953736;28;20180;-86
2021/06/25 06:52:48;;;;;;;4.72;4.15;;;17.00;65.90;;;;;;4953588;28;20199;-87
2021/06/25 06:55:19;;;;;;;6.50;4.72;;;16.60;62.40;;;;;;4954883;28;20168;-86
2021/06/25 06:57:46;;;;;;;5.50;4.93;;;16.50;65.20;;;;;;4953645;29;20206;-87
2021/06/25 07:00:12;;;;;;;6.60;5.00;;;16.40;66.00;;;;;;4954765;28;20595;-87
2021/06/25 07:02:42;;;;;;;5.50;4.45;;;16.80;66.40;;;;;;4954818;28;20575;-87
2021/06/25 07:05:10;;;;;;;7.72;5.60;;;17.00;65.50;;;;;;4953477;29;20171;-87
2021/06/25 07:07:35;;;;;;;4.65;3.97;;;17.00;64.00;;;;;;4953371;29;20238;-87
2021/06/25 07:10:02;;;;;;;6.40;4.22;;;17.20;64.70;;;;;;4954576;28;20171;-87
2021/06/25 07:12:28;;;;;;;6.15;4.47;;;17.40;62.10;;;;;;4953283;29;20262;-87
2021/06/25 07:14:53;;;;;;;6.95;5.18;;;17.50;62.70;;;;;;4953324;28;20171;-87
2021/06/25 07:17:20;;;;;;;6.80;4.07;;;17.30;65.70;;;;;;4954673;29;20200;-87
2021/06/25 07:19:47;;;;;;;5.80;3.90;;;17.30;61.70;;;;;;4953241;29;20180;-87
2021/06/25 07:22:13;;;;;;;5.28;4.15;;;17.20;63.20;;;;;;4954289;29;20187;-87
2021/06/25 07:24:39;;;;;;;5.13;4.35;;;17.40;63.70;;;;;;4953180;29;20179;-87
2021/06/25 07:27:05;;;;;;;5.35;4.47;;;17.20;63.00;;;;;;4953334;28;20277;-86
2021/06/25 07:29:32;;;;;;;7.80;4.90;;;17.10;64.40;;;;;;4954386;28;20182;-87
2021/06/25 07:31:57;;;;;;;8.95;5.13;;;17.10;62.50;;;;;;4953137;29;20631;-88
2021/06/25 07:34:23;;;;;;;6.35;5.13;;;16.90;64.40;;;;;;4952982;29;20207;-87
2021/06/25 07:36:49;;;;;;;6.22;5.63;;;16.90;64.10;;;;;;4952957;29;20237;-86
2021/06/25 07:39:15;;;;;;;6.75;5.53;;;16.70;63.10;;;;;;4953408;29;20221;-87
2021/06/25 07:41:41;;;;;;;7.57;5.45;;;16.90;65.80;;;;;;4952964;28;20172;-87
2021/06/25 07:44:07;;;;;;;5.55;4.88;;;16.80;64.50;;;;;;4952934;28;20271;-87
2021/06/25 07:46:33;;;;;;;7.82;5.55;;;16.80;65.20;;;;;;4954013;29;20666;-87
2021/06/25 07:48:59;;;;;;;5.90;5.38;;;17.20;66.10;;;;;;4952867;29;20176;-86
2021/06/25 07:51:25;;;;;;;8.30;4.97;;;17.10;65.10;;;;;;4952893;29;20179;-87
2021/06/25 07:53:52;;;;;;;6.43;5.78;;;17.20;64.70;;;;;;4952696;28;20295;-87
2021/06/25 07:56:18;;;;;;;6.47;5.35;;;17.20;63.40;;;;;;4953875;29;20178;-87
2021/06/25 07:58:44;;;;;;;6.88;5.72;;;16.90;63.70;;;;;;4953959;28;20172;-87
2021/06/25 08:01:09;;;;;;;8.40;6.07;;;16.80;63.90;;;;;;4953930;29;20176;-88
2021/06/25 08:03:35;;;;;;;6.03;4.72;;;17.00;64.70;;;;;;4953030;28;20548;-87
2021/06/25 08:06:02;;;;;;;6.97;6.28;;;17.30;65.90;;;;;;4953718;29;20254;-87
2021/06/25 08:08:27;;;;;;;7.63;5.13;;;17.40;65.10;;;;;;4952623;29;20188;-88
2021/06/25 08:10:53;;;;;;;6.40;5.80;;;17.50;63.50;;;;;;4953773;29;20178;-87
2021/06/25 08:13:19;;;;;;;7.57;6.10;;;17.40;65.10;;;;;;4952487;29;20200;-88
2021/06/25 08:15:49;;;;;;;6.70;6.00;;;17.50;63.00;;;;;;4953369;29;20526;-88
2021/06/25 08:18:16;;;;;;;8.68;6.60;;;17.50;65.70;;;;;;4953550;29;20187;-87
2021/06/25 08:20:41;;;;;;;7.90;7.13;;;17.70;65.80;;;;;;4953589;28;20592;-87
2021/06/25 08:23:07;;;;;;;9.88;8.30;;;17.60;64.10;;;;;;4952331;28;20241;-86
2021/06/25 08:25:33;;;;;;;10.43;8.50;;;17.70;62.90;;;;;;4952317;28;20580;-86
2021/06/25 08:27:58;;;;;;;8.68;6.85;;;17.80;65.60;;;;;;4953399;29;20710;-86
2021/06/25 08:30:25;;;;;;;8.57;7.53;;;18.20;63.50;;;;;;4953397;29;20171;-87
2021/06/25 08:32:52;;;;;;;9.07;7.85;;;18.30;63.20;;;;;;4953400;28;20219;-87
2021/06/25 08:35:18;;;;;;;10.85;9.77;;;18.60;62.80;;;;;;4952159;29;20179;-87
2021/06/25 08:37:43;;;;;;;15.70;10.32;;;18.10;62.50;;;;;;4951935;29;20215;-87
2021/06/25 08:40:10;;;;;;;13.02;8.98;;;17.80;65.00;;;;;;4951965;29;20597;-85
2021/06/25 08:42:39;;;;;;;9.88;8.88;;;17.90;64.80;;;;;;4953162;28;20176;-86
2021/06/25 08:45:09;;;;;;;12.35;9.80;;;18.00;65.70;;;;;;4953205;29;20705;-86
2021/06/25 08:47:42;;;;;;;11.10;9.73;;;18.30;64.60;;;;;;4951783;29;20230;-86
2021/06/25 08:50:10;;;;;;;10.27;9.27;;;17.90;62.90;;;;;;4951910;28;20175;-86
2021/06/25 08:52:35;;;;;;;11.20;9.02;;;18.00;66.50;;;;;;4951394;28;20251;-86
2021/06/25 08:55:01;;;;;;;10.82;8.60;;;18.70;64.90;;;;;;4951790;28;20176;-86
2021/06/25 08:57:27;;;;;;;12.00;9.95;;;19.20;64.70;;;;;;4951758;29;20676;-87
2021/06/25 08:59:53;;;;;;;10.38;9.30;;;18.80;63.20;;;;;;4952914;29;20262;-87
2021/06/25 09:02:19;;;;;;;9.90;8.82;;;18.70;65.30;;;;;;4951722;28;20322;-88
2021/06/25 09:04:47;;;;;;;9.80;8.45;;;19.00;62.90;;;;;;4952964;28;20258;-88
2021/06/25 09:07:13;;;;;;;9.43;8.48;;;19.50;63.20;;;;;;4952902;28;20292;-88
2021/06/25 09:09:47;;;;;;;10.23;9.13;;;19.30;62.30;;;;;;4952830;29;20206;-87
2021/06/25 09:12:23;;;;;;;10.85;9.77;;;19.00;62.30;;;;;;4951648;29;20532;-88
2021/06/25 09:15:04;;;;;;;10.52;8.75;;;18.90;61.10;;;;;;4951667;29;20183;-88
2021/06/25 09:17:30;;;;;;;12.15;9.50;;;18.60;61.10;;;;;;4953048;28;20183;-88
2021/06/25 09:19:56;;;;;;;11.57;8.57;;;18.90;62.80;;;;;;4952730;28;20176;-88
2021/06/25 09:22:22;;;;;;;9.70;8.18;;;19.20;62.90;;;;;;4952972;29;20215;-89
2021/06/25 09:25:07;;;;;;;10.50;8.88;;;20.10;62.20;;;;;;4951468;29;20182;-88
2021/06/25 09:27:34;;;;;;;8.75;7.28;;;20.70;58.20;;;;;;4952554;28;20195;-89
2021/06/25 09:30:10;;;;;;;10.98;8.45;;;20.30;59.50;;;;;;4952957;28;20250;-88
2021/06/25 09:32:38;;;;;;;8.82;8.00;;;20.60;58.40;;;;;;4952502;28;20195;-88
2021/06/25 09:35:15;;;;;;;11.05;8.40;;;20.70;59.40;;;;;;4951389;29;20183;-88
2021/06/25 09:37:44;;;;;;;8.95;8.05;;;20.20;58.10;;;;;;4951189;29;20214;-88
2021/06/25 09:40:13;;;;;;;9.73;8.15;;;20.80;58.20;;;;;;4951404;29;20171;-88
2021/06/25 09:42:39;;;;;;;10.52;7.80;;;20.70;55.50;;;;;;4951410;29;20316;-88
2021/06/25 09:45:25;;;;;;;14.52;8.00;;;20.80;56.60;;;;;;4951301;29;20191;-89
2021/06/25 09:47:55;;;;;;;8.43;7.45;;;21.10;56.00;;;;;;4951196;28;20295;-88
2021/06/25 09:50:27;;;;;;;9.00;7.32;;;21.40;55.60;;;;;;4952440;29;20182;-89
2021/06/25 09:53:03;;;;;;;8.00;7.20;;;21.50;56.60;;;;;;4951218;29;20207;-87
2021/06/25 09:55:30;;;;;;;7.82;7.03;;;21.10;56.00;;;;;;4951259;29;20578;-87
2021/06/25 10:01:46;;;;;;;8.18;6.15;;;20.90;53.80;;;;;;4952255;28;20550;-88
2021/06/25 10:03:53;;;;;;;10.43;6.00;;;21.40;54.80;;;;;;4946685;28;20187;-88
2021/06/25 10:06:21;;;;;;;9.68;7.60;;;21.70;53.80;;;;;;4954959;28;20167;-87
2021/06/25 10:08:47;;;;;;;7.55;6.55;;;21.20;55.50;;;;;;4955851;28;20179;-88
2021/06/25 10:11:17;;;;;;;7.72;6.93;;;21.20;55.80;;;;;;4954345;29;20183;-88
2021/06/25 10:13:44;;;;;;;11.40;7.95;;;21.20;57.10;;;;;;4955506;28;20230;-88
2021/06/25 10:16:11;;;;;;;9.73;7.28;;;21.10;54.60;;;;;;4954230;29;20203;-87
2021/06/25 10:18:37;;;;;;;7.75;6.15;;;21.00;56.10;;;;;;4954220;29;20191;-88
2021/06/25 10:21:06;;;;;;;8.32;6.60;;;20.80;57.60;;;;;;4955468;28;20156;-88
2021/06/25 10:23:33;;;;;;;6.82;6.20;;;21.20;53.80;;;;;;4954325;29;20262;-87
2021/06/25 10:26:06;;;;;;;8.73;6.60;;;21.20;56.00;;;;;;4954095;29;20790;-87
2021/06/25 10:28:32;;;;;;;9.48;6.75;;;21.20;53.40;;;;;;4955347;28;20643;-87
2021/06/25 10:30:58;;;;;;;10.45;6.20;;;21.30;55.50;;;;;;4954071;29;20176;-87
2021/06/25 10:33:25;;;;;;;7.65;5.95;;;21.50;54.30;;;;;;4953970;28;20288;-88
2021/06/25 10:35:50;;;;;;;11.38;5.43;;;20.60;53.60;;;;;;4955191;28;20655;-88
2021/06/25 10:38:19;;;;;;;5.78;4.80;;;21.40;53.70;;;;;;4953872;28;20226;-87
2021/06/25 10:41:05;;;;;;;6.70;5.22;;;21.30;53.70;;;;;;4953906;29;20662;-88
2021/06/25 10:43:52;;;;;;;5.55;4.40;;;21.80;54.00;;;;;;4953762;29;20188;-88
2021/06/25 10:46:35;;;;;;;6.30;4.80;;;22.40;49.90;;;;;;4954987;28;20506;-88
2021/06/25 10:49:07;;;;;;;7.50;4.45;;;21.60;51.20;;;;;;4955087;28;20171;-88
2021/06/25 10:51:38;;;;;;;5.78;4.35;;;21.60;50.90;;;;;;4954941;28;20213;-88
2021/06/25 10:54:11;;;;;;;6.88;3.78;;;21.70;52.80;;;;;;4953664;29;20605;-88
2021/06/25 10:56:38;;;;;;;5.47;4.03;;;21.80;51.90;;;;;;4954882;28;20274;-88
2021/06/25 10:59:31;;;;;;;8.50;4.25;;;22.20;50.50;;;;;;4953624;28;20584;-88
2021/06/25 11:02:02;;;;;;;4.25;3.70;;;21.90;51.30;;;;;;4952521;28;20210;-87
2021/06/25 11:04:30;;;;;;;5.68;3.55;;;21.50;51.60;;;;;;4953601;29;20179;-88
2021/06/25 11:06:57;;;;;;;9.75;4.00;;;22.00;51.90;;;;;;4954599;29;20196;-88
2021/06/25 11:09:27;;;;;;;4.75;3.55;;;22.20;50.20;;;;;;4954348;29;20226;-88
2021/06/25 11:12:18;;;;;;;5.28;3.63;;;22.40;51.30;;;;;;4953533;29;20558;-88
2021/06/25 11:14:44;;;;;;;4.75;3.38;;;23.10;47.70;;;;;;4953425;28;20225;-88
2021/06/25 11:17:10;;;;;;;4.35;3.92;;;23.30;47.10;;;;;;4954267;28;20655;-88
2021/06/25 11:19:41;;;;;;;3.13;2.80;;;23.20;47.30;;;;;;4954537;29;20175;-88
2021/06/25 11:22:35;;;;;;;6.38;3.45;;;23.50;46.70;;;;;;4953401;29;20305;-87
2021/06/25 11:25:01;;;;;;;4.18;3.20;;;23.00;45.50;;;;;;4953233;29;20712;-88
2021/06/25 11:28:05;;;;;;;2.92;2.72;;;22.80;46.10;;;;;;4953090;29;20295;-88
2021/06/25 11:30:59;;;;;;;6.55;2.90;;;23.00;44.60;;;;;;4954249;29;20175;-88
2021/06/25 11:33:33;;;;;;;4.20;2.70;;;22.50;48.60;;;;;;4953026;29;20200;-89
2021/06/25 11:36:25;;;;;;;5.97;2.83;;;22.80;48.70;;;;;;4953256;29;20557;-89
2021/06/25 11:39:09;;;;;;;4.30;3.63;;;23.50;45.90;;;;;;5047923;22;20230;-88
2021/06/25 11:41:57;;;;;;;3.85;3.38;;;22.60;45.80;;;;;;4975569;28;20182;-88
2021/06/25 11:44:45;;;;;;;5.22;2.80;;;22.20;47.30;;;;;;4984409;28;20193;-88
2021/06/25 11:47:27;;;;;;;5.80;3.30;;;22.20;50.40;;;;;;4992801;28;20253;-88
2021/06/25 11:50:10;;;;;;;7.57;2.97;;;22.40;48.00;;;;;;4993006;28;20173;-89
2021/06/25 11:52:41;;;;;;;4.40;3.40;;;23.00;47.60;;;;;;4975261;28;20201;-89
2021/06/25 11:55:09;;;;;;;4.60;3.13;;;23.20;45.30;;;;;;4992961;28;20641;-89
2021/06/25 11:57:37;;;;;;;4.75;3.17;;;22.80;42.90;;;;;;4975173;28;20198;-88
2021/06/25 12:00:12;;;;;;;2.95;2.70;;;22.90;46.20;;;;;;4992606;28;20174;-89
2021/06/25 12:02:50;;;;;;;6.72;3.20;;;23.50;46.10;;;;;;4992642;28;20158;-89
2021/06/25 12:05:18;;;;;;;4.93;2.97;;;23.50;45.30;;;;;;4975250;28;20180;-89
2021/06/25 12:07:44;;;;;;;4.07;3.33;;;24.20;46.00;;;;;;4975130;28;20194;-89
2021/06/25 12:10:15;;;;;;;4.20;2.85;;;24.50;44.70;;;;;;4992483;28;20170;-88
2021/06/25 12:12:41;;;;;;;5.82;2.60;;;23.60;43.40;;;;;;4992446;28;20217;-88
2021/06/25 12:15:09;;;;;;;4.07;2.90;;;23.70;46.30;;;;;;4974900;28;20668;-88
2021/06/25 12:17:42;;;;;;;4.10;2.47;;;23.10;45.30;;;;;;4992445;28;20194;-88
2021/06/25 12:20:11;;;;;;;2.63;2.40;;;23.60;45.90;;;;;;4992306;28;20251;-89
2021/06/25 12:22:48;;;;;;;5.07;3.08;;;23.90;45.90;;;;;;4992308;28;20166;-88
2021/06/25 12:25:14;;;;;;;3.83;2.78;;;24.20;43.10;;;;;;4992227;28;20574;-88
2021/06/25 12:27:42;;;;;;;4.63;3.03;;;24.60;43.50;;;;;;4991361;28;20186;-88
2021/06/25 12:30:14;;;;;;;3.13;2.80;;;24.60;42.40;;;;;;4974770;28;20186;-88
2021/06/25 12:32:41;;;;;;;5.18;2.75;;;24.60;41.80;;;;;;4990810;28;20174;-88
2021/06/25 12:35:08;;;;;;;3.75;2.15;;;24.80;41.20;;;;;;4992023;28;20209;-87
2021/06/25 12:37:53;;;;;;;7.00;2.70;;;25.00;43.50;;;;;;4974344;28;20214;-88
2021/06/25 12:40:40;;;;;;;5.90;2.88;;;25.20;42.80;;;;;;4992061;28;20193;-87
2021/06/25 12:43:06;;;;;;;5.35;3.70;;;24.80;42.80;;;;;;4974572;28;20181;-86
2021/06/25 12:46:02;;;;;;;3.17;2.95;;;23.30;42.90;;;;;;4974412;28;20174;-87
2021/06/25 12:48:34;;;;;;;4.15;3.13;;;23.20;41.90;;;;;;4991585;28;20193;-87
2021/06/25 12:51:09;;;;;;;5.63;3.20;;;23.90;44.00;;;;;;4974490;28;20170;-87
2021/06/25 12:53:40;;;;;;;5.55;3.33;;;24.00;40.00;;;;;;4974329;28;20254;-87
2021/06/25 12:56:19;;;;;;;3.97;3.60;;;24.10;41.70;;;;;;4974364;28;20257;-87
2021/06/25 12:58:50;;;;;;;4.45;3.20;;;24.00;41.80;;;;;;4991641;28;20185;-87
2021/06/25 13:01:16;;;;;;;3.42;3.13;;;24.10;43.00;;;;;;4974357;28;20198;-87
2021/06/25 13:03:44;;;;;;;3.50;3.15;;;24.20;43.20;;;;;;4974231;28;20197;-87